sensor_id;sensor_type;location;lat;lon;timestamp;P1;P4;P2;P0;N10;N4;N25;N1;N05;TS
44530;SPS30;30240;47.418;0.700;2023-07-24T00:00:33;4.156443;;4.112665;;;;;;;
44530;SPS30;30240;47.418;0.700;2023-07-24T00:02:58;3.7963426;;3.7769382;;;;;;;
44530;SPS30;30240;47.418;0.700;2023-07-24T00:05:23;4.111029;;4.0533586;;;;;;;
44530;SPS30;30240;47.418;0.700;2023-07-24T00:07:49;4.1686206;;4.135237;;;;;;;
44530;SPS30;30240;47.418;0.700;2023-07-24T00:10:14;4.543721;;4.449739;;;;;;;
44530;SPS30;30240;47.418;0.700;2023-07-24T00:12:39;4.543721;;4.449739;;;;;;;
44530;SPS30;30240;47.418;0.700;2023-07-24T00:15:04;3.9447358;;3.8979566;;;;;;;
44530;SPS30;30240;47.418;0.700;2023-07-24T00:17:28;4.4271007;;4.3746953;;;;;;;
44530;SPS30;30240;47.418;0.700;2023-07-24T00:19:53;3.7281356;;3.6808574;;;;;;;
44530;SPS30;30240;47.418;0.700;2023-07-24T00:22:19;3.9351392;;3.897491;;;;;;;
44530;SPS30;30240;47.418;0.700;2023-07-24T00:24:43;4.3531156;;4.2608137;;;;;;;
44530;SPS30;30240;47.418;0.700;2023-07-24T00:27:08;4.3531156;;4.2608137;;;;;;;
44530;SPS30;30240;47.418;0.700;2023-07-24T00:29:34;4.565033;;4.479493;;;;;;;
44530;SPS30;30240;47.418;0.700;2023-07-24T00:31:59;3.6204195;;3.5742896;;;;;;;
44530;SPS30;30240;47.418;0.700;2023-07-24T00:34:23;3.8760936;;3.8233852;;;;;;;
44530;SPS30;30240;47.418;0.700;2023-07-24T00:36:48;4.111732;;4.050197;;;;;;;
44530;SPS30;30240;47.418;0.700;2023-07-24T00:39:14;4.111732;;4.050197;;;;;;;
44530;SPS30;30240;47.418;0.700;2023-07-24T00:41:38;3.9273462;;3.871518;;;;;;;
44530;SPS30;30240;47.418;0.700;2023-07-24T00:44:03;4.385185;;4.3147526;;;;;;;
44530;SPS30;30240;47.418;0.700;2023-07-24T00:46:28;4.047581;;3.98164;;;;;;;
44530;SPS30;30240;47.418;0.700;2023-07-24T00:48:53;4.3840976;;4.308136;;;;;;;
44530;SPS30;30240;47.418;0.700;2023-07-24T00:51:19;4.3840976;;4.308136;;;;;;;
44530;SPS30;30240;47.418;0.700;2023-07-24T00:53:43;3.6513183;;3.572603;;;;;;;
44530;SPS30;30240;47.418;0.700;2023-07-24T00:56:08;4.098436;;4.0221324;;;;;;;
44530;SPS30;30240;47.418;0.700;2023-07-24T00:58:34;3.5815277;;3.5392125;;;;;;;
44530;SPS30;30240;47.418;0.700;2023-07-24T01:00:59;3.9149835;;3.8483484;;;;;;;
44530;SPS30;30240;47.418;0.700;2023-07-24T01:03:31;3.9149835;;3.8483484;;;;;;;
44530;SPS30;30240;47.418;0.700;2023-07-24T01:03:34;3.9149835;;3.8483484;;;;;;;
44530;SPS30;30240;47.418;0.700;2023-07-24T01:05:48;3.9582214;;3.9243748;;;;;;;
44530;SPS30;30240;47.418;0.700;2023-07-24T01:08:13;4.254086;;4.211173;;;;;;;
44530;SPS30;30240;47.418;0.700;2023-07-24T01:10:38;4.142475;;4.0913773;;;;;;;
44530;SPS30;30240;47.418;0.700;2023-07-24T01:13:05;3.5170124;;3.4526405;;;;;;;
44530;SPS30;30240;47.418;0.700;2023-07-24T01:15:30;3.5170124;;3.4526405;;;;;;;
44530;SPS30;30240;47.418;0.700;2023-07-24T01:17:55;3.953105;;3.8525047;;;;;;;
44530;SPS30;30240;47.418;0.700;2023-07-24T01:20:19;3.7113588;;3.6337771;;;;;;;
44530;SPS30;30240;47.418;0.700;2023-07-24T01:22:47;4.633439;;4.5635223;;;;;;;
44530;SPS30;30240;47.418;0.700;2023-07-24T01:25:10;3.817772;;3.772434;;;;;;;
44530;SPS30;30240;47.418;0.700;2023-07-24T01:27:34;3.817772;;3.772434;;;;;;;
44530;SPS30;30240;47.418;0.700;2023-07-24T01:29:59;4.515099;;4.468767;;;;;;;
44530;SPS30;30240;47.418;0.700;2023-07-24T01:32:23;3.7731445;;3.7203646;;;;;;;
44530;SPS30;30240;47.418;0.700;2023-07-24T01:34:49;3.4616642;;3.439426;;;;;;;
44530;SPS30;30240;47.418;0.700;2023-07-24T01:37:14;3.381422;;3.3293533;;;;;;;
44530;SPS30;30240;47.418;0.700;2023-07-24T01:39:39;3.381422;;3.3293533;;;;;;;
44530;SPS30;30240;47.418;0.700;2023-07-24T01:42:04;4.0121393;;3.9206758;;;;;;;
44530;SPS30;30240;47.418;0.700;2023-07-24T01:44:29;4.1389933;;4.0708504;;;;;;;
44530;SPS30;30240;47.418;0.700;2023-07-24T01:46:54;4.075243;;4.0393276;;;;;;;
44530;SPS30;30240;47.418;0.700;2023-07-24T01:49:19;4.180657;;4.1134543;;;;;;;
44530;SPS30;30240;47.418;0.700;2023-07-24T01:51:43;4.180657;;4.1134543;;;;;;;
44530;SPS30;30240;47.418;0.700;2023-07-24T01:54:08;4.3242435;;4.26043;;;;;;;
44530;SPS30;30240;47.418;0.700;2023-07-24T01:56:35;4.076951;;4.022072;;;;;;;
44530;SPS30;30240;47.418;0.700;2023-07-24T01:58:59;3.9368021;;3.8663104;;;;;;;
44530;SPS30;30240;47.418;0.700;2023-07-24T02:01:24;3.6094556;;3.537738;;;;;;;
44530;SPS30;30240;47.418;0.700;2023-07-24T02:03:48;4.3483534;;4.2231994;;;;;;;
44530;SPS30;30240;47.418;0.700;2023-07-24T02:06:13;4.3483534;;4.2231994;;;;;;;
44530;SPS30;30240;47.418;0.700;2023-07-24T02:08:38;3.9490788;;3.8844118;;;;;;;
44530;SPS30;30240;47.418;0.700;2023-07-24T02:11:03;3.7122467;;3.6424541;;;;;;;
44530;SPS30;30240;47.418;0.700;2023-07-24T02:13:28;3.5962777;;3.5070653;;;;;;;
44530;SPS30;30240;47.418;0.700;2023-07-24T02:15:53;4.4486275;;4.349165;;;;;;;
44530;SPS30;30240;47.418;0.700;2023-07-24T02:18:18;4.4486275;;4.349165;;;;;;;
44530;SPS30;30240;47.418;0.700;2023-07-24T02:20:48;4.3224;;4.2227945;;;;;;;
44530;SPS30;30240;47.418;0.700;2023-07-24T02:23:09;3.848715;;3.7702942;;;;;;;
44530;SPS30;30240;47.418;0.700;2023-07-24T02:25:35;4.241336;;4.152404;;;;;;;
44530;SPS30;30240;47.418;0.700;2023-07-24T02:27:58;4.2054915;;4.1097074;;;;;;;
44530;SPS30;30240;47.418;0.700;2023-07-24T02:30:23;4.2054915;;4.1097074;;;;;;;
44530;SPS30;30240;47.418;0.700;2023-07-24T02:32:48;3.5069025;;3.4717712;;;;;;;
44530;SPS30;30240;47.418;0.700;2023-07-24T02:35:14;3.954589;;3.8682892;;;;;;;
44530;SPS30;30240;47.418;0.700;2023-07-24T02:37:38;3.2386563;;3.1669858;;;;;;;
44530;SPS30;30240;47.418;0.700;2023-07-24T02:40:04;3.4909446;;3.3598135;;;;;;;
44530;SPS30;30240;47.418;0.700;2023-07-24T02:42:28;3.4909446;;3.3598135;;;;;;;
44530;SPS30;30240;47.418;0.700;2023-07-24T02:44:53;3.3106751;;3.2265239;;;;;;;
44530;SPS30;30240;47.418;0.700;2023-07-24T02:47:19;3.1891398;;3.1118581;;;;;;;
44530;SPS30;30240;47.418;0.700;2023-07-24T02:49:43;2.648161;;2.5936887;;;;;;;
44530;SPS30;30240;47.418;0.700;2023-07-24T02:52:09;2.8779662;;2.818072;;;;;;;
44530;SPS30;30240;47.418;0.700;2023-07-24T02:54:35;2.8779662;;2.818072;;;;;;;
44530;SPS30;30240;47.418;0.700;2023-07-24T02:57:03;2.1883738;;2.1407773;;;;;;;
44530;SPS30;30240;47.418;0.700;2023-07-24T02:59:23;2.3096137;;2.2475615;;;;;;;
44530;SPS30;30240;47.418;0.700;2023-07-24T03:01:48;1.7513393;;1.7251625;;;;;;;
44530;SPS30;30240;47.418;0.700;2023-07-24T03:04:13;1.7310077;;1.7017365;;;;;;;
44530;SPS30;30240;47.418;0.700;2023-07-24T03:06:39;1.7310077;;1.7017365;;;;;;;
44530;SPS30;30240;47.418;0.700;2023-07-24T03:09:03;1.3202875;;1.2971965;;;;;;;
44530;SPS30;30240;47.418;0.700;2023-07-24T03:11:28;1.4528722;;1.4316047;;;;;;;
44530;SPS30;30240;47.418;0.700;2023-07-24T03:13:53;1.4554555;;1.4420307;;;;;;;
44530;SPS30;30240;47.418;0.700;2023-07-24T03:16:18;1.2603296;;1.2485598;;;;;;;
44530;SPS30;30240;47.418;0.700;2023-07-24T03:18:43;1.2603296;;1.2485598;;;;;;;
44530;SPS30;30240;47.418;0.700;2023-07-24T03:21:09;1.1689091;;1.1554741;;;;;;;
44530;SPS30;30240;47.418;0.700;2023-07-24T03:23:33;1.490237;;1.4779534;;;;;;;
44530;SPS30;30240;47.418;0.700;2023-07-24T03:25:58;1.0202937;;1.0084573;;;;;;;
44530;SPS30;30240;47.418;0.700;2023-07-24T03:28:23;1.2143439;;1.202938;;;;;;;
44530;SPS30;30240;47.418;0.700;2023-07-24T03:30:49;1.3278345;;1.3071858;;;;;;;
44530;SPS30;30240;47.418;0.700;2023-07-24T03:33:14;1.3278345;;1.3071858;;;;;;;
44530;SPS30;30240;47.418;0.700;2023-07-24T03:35:39;1.5254827;;1.5019933;;;;;;;
44530;SPS30;30240;47.418;0.700;2023-07-24T03:38:03;1.4952661;;1.463063;;;;;;;
44530;SPS30;30240;47.418;0.700;2023-07-24T03:40:28;1.3669196;;1.3439785;;;;;;;
44530;SPS30;30240;47.418;0.700;2023-07-24T03:42:53;1.450835;;1.4269742;;;;;;;
44530;SPS30;30240;47.418;0.700;2023-07-24T03:45:19;1.450835;;1.4269742;;;;;;;
44530;SPS30;30240;47.418;0.700;2023-07-24T03:47:44;1.2253217;;1.2049917;;;;;;;
44530;SPS30;30240;47.418;0.700;2023-07-24T03:50:09;1.6957897;;1.6698363;;;;;;;
44530;SPS30;30240;47.418;0.700;2023-07-24T03:52:33;1.6404337;;1.6184961;;;;;;;
44530;SPS30;30240;47.418;0.700;2023-07-24T03:54:58;1.0511662;;1.0380707;;;;;;;
44530;SPS30;30240;47.418;0.700;2023-07-24T03:57:23;1.0511662;;1.0380707;;;;;;;
44530;SPS30;30240;47.418;0.700;2023-07-24T03:59:48;0.91088915;;0.90157384;;;;;;;
44530;SPS30;30240;47.418;0.700;2023-07-24T04:02:13;1.3071799;;1.2950165;;;;;;;
44530;SPS30;30240;47.418;0.700;2023-07-24T04:04:38;1.5114295;;1.4974713;;;;;;;
44530;SPS30;30240;47.418;0.700;2023-07-24T04:07:04;1.0153077;;1.0080036;;;;;;;
44530;SPS30;30240;47.418;0.700;2023-07-24T04:09:29;1.0153077;;1.0080036;;;;;;;
44530;SPS30;30240;47.418;0.700;2023-07-24T04:11:54;1.2506326;;1.2418528;;;;;;;
44530;SPS30;30240;47.418;0.700;2023-07-24T04:14:19;1.5834644;;1.5632623;;;;;;;
44530;SPS30;30240;47.418;0.700;2023-07-24T04:16:44;1.4820657;;1.4663541;;;;;;;
44530;SPS30;30240;47.418;0.700;2023-07-24T04:19:08;1.2047673;;1.1969202;;;;;;;
44530;SPS30;30240;47.418;0.700;2023-07-24T04:21:34;1.2047673;;1.1969202;;;;;;;
44530;SPS30;30240;47.418;0.700;2023-07-24T04:23:59;1.4383678;;1.4253274;;;;;;;
44530;SPS30;30240;47.418;0.700;2023-07-24T04:26:23;1.1403946;;1.1261837;;;;;;;
44530;SPS30;30240;47.418;0.700;2023-07-24T04:28:48;1.1845545;;1.1765442;;;;;;;
44530;SPS30;30240;47.418;0.700;2023-07-24T04:31:13;1.2618206;;1.2502013;;;;;;;
44530;SPS30;30240;47.418;0.700;2023-07-24T04:33:39;1.2618206;;1.2502013;;;;;;;
44530;SPS30;30240;47.418;0.700;2023-07-24T04:36:04;1.1167183;;1.1086938;;;;;;;
44530;SPS30;30240;47.418;0.700;2023-07-24T04:38:28;1.4035612;;1.3876067;;;;;;;
44530;SPS30;30240;47.418;0.700;2023-07-24T04:40:53;1.2428688;;1.2281041;;;;;;;
44530;SPS30;30240;47.418;0.700;2023-07-24T04:43:18;1.1871994;;1.178846;;;;;;;
44530;SPS30;30240;47.418;0.700;2023-07-24T04:45:43;1.1871994;;1.178846;;;;;;;
44530;SPS30;30240;47.418;0.700;2023-07-24T04:48:08;1.1152548;;1.1010406;;;;;;;
44530;SPS30;30240;47.418;0.700;2023-07-24T04:50:34;1.2892106;;1.2694674;;;;;;;
44530;SPS30;30240;47.418;0.700;2023-07-24T04:52:58;1.6595434;;1.6355141;;;;;;;
44530;SPS30;30240;47.418;0.700;2023-07-24T04:55:23;1.4776424;;1.4454348;;;;;;;
44530;SPS30;30240;47.418;0.700;2023-07-24T04:57:48;1.4776424;;1.4454348;;;;;;;
44530;SPS30;30240;47.418;0.700;2023-07-24T05:00:14;1.2086908;;1.1838386;;;;;;;
44530;SPS30;30240;47.418;0.700;2023-07-24T05:02:38;1.4604299;;1.4404353;;;;;;;
44530;SPS30;30240;47.418;0.700;2023-07-24T05:05:04;1.4401444;;1.4192255;;;;;;;
44530;SPS30;30240;47.418;0.700;2023-07-24T05:07:29;1.3559544;;1.3404683;;;;;;;
44530;SPS30;30240;47.418;0.700;2023-07-24T05:09:53;1.2773967;;1.2639655;;;;;;;
44530;SPS30;30240;47.418;0.700;2023-07-24T05:12:18;1.2773967;;1.2639655;;;;;;;
44530;SPS30;30240;47.418;0.700;2023-07-24T05:14:43;1.6371721;;1.6040891;;;;;;;
44530;SPS30;30240;47.418;0.700;2023-07-24T05:17:08;1.5867532;;1.5504175;;;;;;;
44530;SPS30;30240;47.418;0.700;2023-07-24T05:19:33;1.6690588;;1.6405486;;;;;;;
44530;SPS30;30240;47.418;0.700;2023-07-24T05:21:58;1.4689447;;1.4426603;;;;;;;
44530;SPS30;30240;47.418;0.700;2023-07-24T05:24:23;1.4689447;;1.4426603;;;;;;;
44530;SPS30;30240;47.418;0.700;2023-07-24T05:26:49;1.4279884;;1.4067196;;;;;;;
44530;SPS30;30240;47.418;0.700;2023-07-24T05:29:13;1.9173845;;1.8766327;;;;;;;
44530;SPS30;30240;47.418;0.700;2023-07-24T05:31:39;1.4036868;;1.3754952;;;;;;;
44530;SPS30;30240;47.418;0.700;2023-07-24T05:34:03;1.4916785;;1.4658915;;;;;;;
44530;SPS30;30240;47.418;0.700;2023-07-24T05:36:29;1.4916785;;1.4658915;;;;;;;
44530;SPS30;30240;47.418;0.700;2023-07-24T05:38:53;1.7391366;;1.7133877;;;;;;;
44530;SPS30;30240;47.418;0.700;2023-07-24T05:41:18;1.2318577;;1.2144105;;;;;;;
44530;SPS30;30240;47.418;0.700;2023-07-24T05:43:43;1.5831084;;1.5727462;;;;;;;
44530;SPS30;30240;47.418;0.700;2023-07-24T05:46:08;1.4572828;;1.4522256;;;;;;;
44530;SPS30;30240;47.418;0.700;2023-07-24T05:48:33;1.4572828;;1.4522256;;;;;;;
44530;SPS30;30240;47.418;0.700;2023-07-24T05:50:59;1.4071417;;1.3985862;;;;;;;
44530;SPS30;30240;47.418;0.700;2023-07-24T05:53:23;1.6967969;;1.6823654;;;;;;;
44530;SPS30;30240;47.418;0.700;2023-07-24T05:55:57;1.2597666;;1.2507809;;;;;;;
44530;SPS30;30240;47.418;0.700;2023-07-24T05:58:14;1.4781494;;1.4542093;;;;;;;
44530;SPS30;30240;47.418;0.700;2023-07-24T06:00:39;1.4781494;;1.4542093;;;;;;;
44530;SPS30;30240;47.418;0.700;2023-07-24T06:03:03;1.2190057;;1.1959367;;;;;;;
44530;SPS30;30240;47.418;0.700;2023-07-24T06:05:28;1.600621;;1.58589;;;;;;;
44530;SPS30;30240;47.418;0.700;2023-07-24T06:07:53;1.2864109;;1.2772173;;;;;;;
44530;SPS30;30240;47.418;0.700;2023-07-24T06:10:19;1.6931853;;1.6872377;;;;;;;
44530;SPS30;30240;47.418;0.700;2023-07-24T06:12:43;1.6931853;;1.6872377;;;;;;;
44530;SPS30;30240;47.418;0.700;2023-07-24T06:15:09;1.1976418;;1.1919913;;;;;;;
44530;SPS30;30240;47.418;0.700;2023-07-24T06:17:33;1.4123034;;1.4023931;;;;;;;
44530;SPS30;30240;47.418;0.700;2023-07-24T06:19:58;1.7560444;;1.739723;;;;;;;
44530;SPS30;30240;47.418;0.700;2023-07-24T06:22:24;1.444453;;1.4370056;;;;;;;
44530;SPS30;30240;47.418;0.700;2023-07-24T06:24:48;1.444453;;1.4370056;;;;;;;
44530;SPS30;30240;47.418;0.700;2023-07-24T06:27:13;1.4196117;;1.4105546;;;;;;;
44530;SPS30;30240;47.418;0.700;2023-07-24T06:29:38;1.5098548;;1.5076306;;;;;;;
44530;SPS30;30240;47.418;0.700;2023-07-24T06:32:04;1.3119186;;1.3076392;;;;;;;
44530;SPS30;30240;47.418;0.700;2023-07-24T06:34:29;1.330499;;1.3256005;;;;;;;
44530;SPS30;30240;47.418;0.700;2023-07-24T06:36:53;0.99281615;;0.9874122;;;;;;;
44530;SPS30;30240;47.418;0.700;2023-07-24T06:39:19;0.99281615;;0.9874122;;;;;;;
44530;SPS30;30240;47.418;0.700;2023-07-24T06:41:44;1.4184929;;1.4079566;;;;;;;
44530;SPS30;30240;47.418;0.700;2023-07-24T06:44:08;1.6573691;;1.6445231;;;;;;;
44530;SPS30;30240;47.418;0.700;2023-07-24T06:46:33;1.907497;;1.8972647;;;;;;;
44530;SPS30;30240;47.418;0.700;2023-07-24T06:48:58;1.7218947;;1.7176012;;;;;;;
44530;SPS30;30240;47.418;0.700;2023-07-24T06:51:24;1.7218947;;1.7176012;;;;;;;
44530;SPS30;30240;47.418;0.700;2023-07-24T06:53:49;1.3658322;;1.3621314;;;;;;;
44530;SPS30;30240;47.418;0.700;2023-07-24T06:56:14;1.9572682;;1.9484314;;;;;;;
44530;SPS30;30240;47.418;0.700;2023-07-24T06:58:39;2.051786;;2.017367;;;;;;;
44530;SPS30;30240;47.418;0.700;2023-07-24T07:01:05;1.6390073;;1.6077127;;;;;;;
44530;SPS30;30240;47.418;0.700;2023-07-24T07:03:29;1.6390073;;1.6077127;;;;;;;
44530;SPS30;30240;47.418;0.700;2023-07-24T07:05:58;1.9544866;;1.919188;;;;;;;
44530;SPS30;30240;47.418;0.700;2023-07-24T07:08:19;1.4692613;;1.4229217;;;;;;;
44530;SPS30;30240;47.418;0.700;2023-07-24T07:10:43;2.0236225;;1.9470208;;;;;;;
44530;SPS30;30240;47.418;0.700;2023-07-24T07:13:09;2.0736487;;2.0079503;;;;;;;
44530;SPS30;30240;47.418;0.700;2023-07-24T07:15:35;2.0736487;;2.0079503;;;;;;;
44530;SPS30;30240;47.418;0.700;2023-07-24T07:17:59;2.2428098;;2.1849034;;;;;;;
44530;SPS30;30240;47.418;0.700;2023-07-24T07:20:24;2.0748422;;2.026255;;;;;;;
44530;SPS30;30240;47.418;0.700;2023-07-24T07:22:48;1.6901249;;1.6708292;;;;;;;
44530;SPS30;30240;47.418;0.700;2023-07-24T07:25:14;1.8006706;;1.7794538;;;;;;;
44530;SPS30;30240;47.418;0.700;2023-07-24T07:27:38;1.8006706;;1.7794538;;;;;;;
44530;SPS30;30240;47.418;0.700;2023-07-24T07:30:04;1.9137871;;1.9013511;;;;;;;
44530;SPS30;30240;47.418;0.700;2023-07-24T07:32:28;1.4429836;;1.4306942;;;;;;;
44530;SPS30;30240;47.418;0.700;2023-07-24T07:34:53;1.8338528;;1.8084105;;;;;;;
44530;SPS30;30240;47.418;0.700;2023-07-24T07:37:18;2.476257;;2.4175673;;;;;;;
44530;SPS30;30240;47.418;0.700;2023-07-24T07:39:43;2.476257;;2.4175673;;;;;;;
44530;SPS30;30240;47.418;0.700;2023-07-24T07:42:08;1.9307965;;1.9029336;;;;;;;
44530;SPS30;30240;47.418;0.700;2023-07-24T07:44:33;2.0941782;;2.0637193;;;;;;;
44530;SPS30;30240;47.418;0.700;2023-07-24T07:46:58;1.5856823;;1.5730054;;;;;;;
44530;SPS30;30240;47.418;0.700;2023-07-24T07:49:23;1.5481873;;1.5362525;;;;;;;
44530;SPS30;30240;47.418;0.700;2023-07-24T07:51:48;1.5481873;;1.5362525;;;;;;;
44530;SPS30;30240;47.418;0.700;2023-07-24T07:54:13;2.0055642;;1.9783769;;;;;;;
44530;SPS30;30240;47.418;0.700;2023-07-24T07:56:38;1.5598958;;1.5361313;;;;;;;
44530;SPS30;30240;47.418;0.700;2023-07-24T07:59:03;1.6919193;;1.6700348;;;;;;;
44530;SPS30;30240;47.418;0.700;2023-07-24T08:01:28;2.1953843;;2.1763551;;;;;;;
44530;SPS30;30240;47.418;0.700;2023-07-24T08:03:53;2.1953843;;2.1763551;;;;;;;
44530;SPS30;30240;47.418;0.700;2023-07-24T08:06:18;1.47755;;1.4559916;;;;;;;
44530;SPS30;30240;47.418;0.700;2023-07-24T08:08:43;1.7023336;;1.671264;;;;;;;
44530;SPS30;30240;47.418;0.700;2023-07-24T08:11:08;1.6898632;;1.6469287;;;;;;;
44530;SPS30;30240;47.418;0.700;2023-07-24T08:13:33;2.2185774;;2.1942062;;;;;;;
44530;SPS30;30240;47.418;0.700;2023-07-24T08:15:58;1.0574313;;1.0473686;;;;;;;
44530;SPS30;30240;47.418;0.700;2023-07-24T08:18:23;1.0574313;;1.0473686;;;;;;;
44530;SPS30;30240;47.418;0.700;2023-07-24T08:20:48;2.1373608;;2.1154592;;;;;;;
44530;SPS30;30240;47.418;0.700;2023-07-24T08:23:13;2.2782664;;2.2533529;;;;;;;
44530;SPS30;30240;47.418;0.700;2023-07-24T08:25:38;1.9729869;;1.9458488;;;;;;;
44530;SPS30;30240;47.418;0.700;2023-07-24T08:28:04;2.1094348;;2.0799608;;;;;;;
44530;SPS30;30240;47.418;0.700;2023-07-24T08:30:28;2.1094348;;2.0799608;;;;;;;
44530;SPS30;30240;47.418;0.700;2023-07-24T08:32:53;2.0243132;;2.0012057;;;;;;;
44530;SPS30;30240;47.418;0.700;2023-07-24T08:35:18;1.7508318;;1.7231724;;;;;;;
44530;SPS30;30240;47.418;0.700;2023-07-24T08:37:43;1.7229514;;1.6792954;;;;;;;
44530;SPS30;30240;47.418;0.700;2023-07-24T08:40:09;1.928062;;1.8860558;;;;;;;
44530;SPS30;30240;47.418;0.700;2023-07-24T08:42:33;1.928062;;1.8860558;;;;;;;
44530;SPS30;30240;47.418;0.700;2023-07-24T08:44:58;2.0039256;;1.9529489;;;;;;;
44530;SPS30;30240;47.418;0.700;2023-07-24T08:47:23;1.543042;;1.5127491;;;;;;;
44530;SPS30;30240;47.418;0.700;2023-07-24T08:49:48;1.7381302;;1.7061402;;;;;;;
44530;SPS30;30240;47.418;0.700;2023-07-24T08:52:14;2.0546806;;2.020988;;;;;;;
44530;SPS30;30240;47.418;0.700;2023-07-24T08:54:38;2.0546806;;2.020988;;;;;;;
44530;SPS30;30240;47.418;0.700;2023-07-24T08:57:04;1.4579163;;1.4483218;;;;;;;
44530;SPS30;30240;47.418;0.700;2023-07-24T08:59:28;1.842622;;1.8198484;;;;;;;
44530;SPS30;30240;47.418;0.700;2023-07-24T09:01:53;2.106473;;2.0851936;;;;;;;
44530;SPS30;30240;47.418;0.700;2023-07-24T09:04:18;2.2091472;;2.1881452;;;;;;;
44530;SPS30;30240;47.418;0.700;2023-07-24T09:06:43;2.2091472;;2.1881452;;;;;;;
44530;SPS30;30240;47.418;0.700;2023-07-24T09:09:12;1.5260062;;1.5129263;;;;;;;
44530;SPS30;30240;47.418;0.700;2023-07-24T09:11:34;1.7558633;;1.7420875;;;;;;;
44530;SPS30;30240;47.418;0.700;2023-07-24T09:11:45;1.7558633;;1.7420875;;;;;;;
44530;SPS30;30240;47.418;0.700;2023-07-24T09:13:58;1.2449062;;1.2134494;;;;;;;
44530;SPS30;30240;47.418;0.700;2023-07-24T09:16:24;1.9594336;;1.9093003;;;;;;;
44530;SPS30;30240;47.418;0.700;2023-07-24T09:18:48;1.9594336;;1.9093003;;;;;;;
44530;SPS30;30240;47.418;0.700;2023-07-24T09:21:13;1.355537;;1.3353068;;;;;;;
44530;SPS30;30240;47.418;0.700;2023-07-24T09:23:38;1.1818929;;1.166607;;;;;;;
44530;SPS30;30240;47.418;0.700;2023-07-24T09:26:05;2.007095;;1.9712101;;;;;;;
44530;SPS30;30240;47.418;0.700;2023-07-24T09:28:28;2.1700475;;2.129921;;;;;;;
44530;SPS30;30240;47.418;0.700;2023-07-24T09:30:54;2.1700475;;2.129921;;;;;;;
44530;SPS30;30240;47.418;0.700;2023-07-24T09:33:18;2.3965712;;2.3299015;;;;;;;
44530;SPS30;30240;47.418;0.700;2023-07-24T09:35:43;1.7044663;;1.6436423;;;;;;;
44530;SPS30;30240;47.418;0.700;2023-07-24T09:38:09;1.88775;;1.845038;;;;;;;
44530;SPS30;30240;47.418;0.700;2023-07-24T09:40:37;1.9881793;;1.9524878;;;;;;;
44530;SPS30;30240;47.418;0.700;2023-07-24T09:42:59;2.0975332;;2.0579684;;;;;;;
44530;SPS30;30240;47.418;0.700;2023-07-24T09:45:24;2.0975332;;2.0579684;;;;;;;
44530;SPS30;30240;47.418;0.700;2023-07-24T09:47:48;2.1690392;;2.1138449;;;;;;;
44530;SPS30;30240;47.418;0.700;2023-07-24T09:50:13;2.3166366;;2.277624;;;;;;;
44530;SPS30;30240;47.418;0.700;2023-07-24T09:52:39;1.6005316;;1.584901;;;;;;;
44530;SPS30;30240;47.418;0.700;2023-07-24T09:55:05;1.881274;;1.8601795;;;;;;;
44530;SPS30;30240;47.418;0.700;2023-07-24T09:57:28;1.881274;;1.8601795;;;;;;;
44530;SPS30;30240;47.418;0.700;2023-07-24T09:59:53;2.137987;;2.114935;;;;;;;
44530;SPS30;30240;47.418;0.700;2023-07-24T10:02:18;2.2890334;;2.2674842;;;;;;;
44530;SPS30;30240;47.418;0.700;2023-07-24T10:04:44;1.8026172;;1.7936834;;;;;;;
44530;SPS30;30240;47.418;0.700;2023-07-24T10:07:08;1.9385006;;1.9340204;;;;;;;
44530;SPS30;30240;47.418;0.700;2023-07-24T10:09:33;1.9385006;;1.9340204;;;;;;;
44530;SPS30;30240;47.418;0.700;2023-07-24T10:11:58;1.6533971;;1.6464671;;;;;;;
44530;SPS30;30240;47.418;0.700;2023-07-24T10:14:24;1.748138;;1.735943;;;;;;;
44530;SPS30;30240;47.418;0.700;2023-07-24T10:16:48;1.5932776;;1.5783972;;;;;;;
44530;SPS30;30240;47.418;0.700;2023-07-24T10:19:14;1.8477056;;1.8195053;;;;;;;
44530;SPS30;30240;47.418;0.700;2023-07-24T10:21:43;1.8477056;;1.8195053;;;;;;;
44530;SPS30;30240;47.418;0.700;2023-07-24T10:21:44;1.8477056;;1.8195053;;;;;;;
44530;SPS30;30240;47.418;0.700;2023-07-24T10:24:04;1.7389045;;1.7185493;;;;;;;
44530;SPS30;30240;47.418;0.700;2023-07-24T10:26:28;1.6755155;;1.6519278;;;;;;;
44530;SPS30;30240;47.418;0.700;2023-07-24T10:28:54;1.2595749;;1.2289484;;;;;;;
44530;SPS30;30240;47.418;0.700;2023-07-24T10:31:19;1.3752344;;1.3509738;;;;;;;
44530;SPS30;30240;47.418;0.700;2023-07-24T10:33:44;1.3752344;;1.3509738;;;;;;;
44530;SPS30;30240;47.418;0.700;2023-07-24T10:36:10;1.6658876;;1.6403255;;;;;;;
44530;SPS30;30240;47.418;0.700;2023-07-24T10:38:34;1.5845432;;1.567026;;;;;;;
44530;SPS30;30240;47.418;0.700;2023-07-24T10:41:00;1.9339616;;1.910605;;;;;;;
44530;SPS30;30240;47.418;0.700;2023-07-24T10:43:23;1.5004405;;1.4762502;;;;;;;
44530;SPS30;30240;47.418;0.700;2023-07-24T10:45:49;1.5004405;;1.4762502;;;;;;;
44530;SPS30;30240;47.418;0.700;2023-07-24T10:48:14;1.5851116;;1.5617458;;;;;;;
44530;SPS30;30240;47.418;0.700;2023-07-24T10:50:39;0.99684507;;0.9841445;;;;;;;
44530;SPS30;30240;47.418;0.700;2023-07-24T10:53:03;1.475914;;1.4597825;;;;;;;
44530;SPS30;30240;47.418;0.700;2023-07-24T10:55:28;1.0680434;;1.0539225;;;;;;;
44530;SPS30;30240;47.418;0.700;2023-07-24T10:57:53;1.0680434;;1.0539225;;;;;;;
44530;SPS30;30240;47.418;0.700;2023-07-24T11:00:18;1.5101826;;1.4874222;;;;;;;
44530;SPS30;30240;47.418;0.700;2023-07-24T11:02:43;1.6104865;;1.5829052;;;;;;;
44530;SPS30;30240;47.418;0.700;2023-07-24T11:05:08;1.4317234;;1.4124333;;;;;;;
44530;SPS30;30240;47.418;0.700;2023-07-24T11:07:33;1.3756843;;1.3425617;;;;;;;
44530;SPS30;30240;47.418;0.700;2023-07-24T11:09:58;1.3756843;;1.3425617;;;;;;;
44530;SPS30;30240;47.418;0.700;2023-07-24T11:12:23;1.4590886;;1.4291615;;;;;;;
44530;SPS30;30240;47.418;0.700;2023-07-24T11:14:49;1.2090968;;1.182018;;;;;;;
44530;SPS30;30240;47.418;0.700;2023-07-24T11:17:13;1.866495;;1.8135098;;;;;;;
44530;SPS30;30240;47.418;0.700;2023-07-24T11:19:38;2.0780356;;2.016243;;;;;;;
44530;SPS30;30240;47.418;0.700;2023-07-24T11:22:03;1.4344351;;1.4154727;;;;;;;
44530;SPS30;30240;47.418;0.700;2023-07-24T11:24:28;1.4344351;;1.4154727;;;;;;;
44530;SPS30;30240;47.418;0.700;2023-07-24T11:26:53;1.7056497;;1.6811272;;;;;;;
44530;SPS30;30240;47.418;0.700;2023-07-24T11:29:18;1.9751581;;1.9388051;;;;;;;
44530;SPS30;30240;47.418;0.700;2023-07-24T11:31:43;1.3633159;;1.3380293;;;;;;;
44530;SPS30;30240;47.418;0.700;2023-07-24T11:34:08;1.2587465;;1.2324924;;;;;;;
44530;SPS30;30240;47.418;0.700;2023-07-24T11:36:33;1.2587465;;1.2324924;;;;;;;
44530;SPS30;30240;47.418;0.700;2023-07-24T11:38:58;1.0512639;;1.0311416;;;;;;;
44530;SPS30;30240;47.418;0.700;2023-07-24T11:41:26;1.7368708;;1.701196;;;;;;;
44530;SPS30;30240;47.418;0.700;2023-07-24T11:43:49;1.6754509;;1.6263411;;;;;;;
44530;SPS30;30240;47.418;0.700;2023-07-24T11:46:22;1.1820849;;1.1569195;;;;;;;
44530;SPS30;30240;47.418;0.700;2023-07-24T11:48:40;1.1820849;;1.1569195;;;;;;;
44530;SPS30;30240;47.418;0.700;2023-07-24T11:51:03;1.0840924;;1.0629624;;;;;;;
44530;SPS30;30240;47.418;0.700;2023-07-24T11:53:30;1.0588377;;1.0413914;;;;;;;
44530;SPS30;30240;47.418;0.700;2023-07-24T11:55:54;1.1974174;;1.1866703;;;;;;;
44530;SPS30;30240;47.418;0.700;2023-07-24T11:58:19;1.0311781;;1.0248897;;;;;;;
44530;SPS30;30240;47.418;0.700;2023-07-24T12:00:44;1.0311781;;1.0248897;;;;;;;
44530;SPS30;30240;47.418;0.700;2023-07-24T12:03:08;1.2086273;;1.1947993;;;;;;;
44530;SPS30;30240;47.418;0.700;2023-07-24T12:05:37;1.2765452;;1.2685698;;;;;;;